createdAt,value
2019-03-23T00:00:42.313Z,21.46
2019-03-23T00:03:09.257Z,21.46
2019-03-23T00:05:36.161Z,21.46
2019-03-23T00:08:03.073Z,21.46
2019-03-23T00:10:29.984Z,21.45
2019-03-23T00:12:56.895Z,21.45
2019-03-23T00:15:23.812Z,21.46
2019-03-23T00:17:50.788Z,21.46
2019-03-23T00:20:17.711Z,21.45
2019-03-23T00:22:44.629Z,21.46
2019-03-23T00:25:11.551Z,21.45
2019-03-23T00:27:38.466Z,21.45
2019-03-23T00:30:05.408Z,21.44
2019-03-23T00:32:32.336Z,21.46
2019-03-23T00:34:59.244Z,21.45
2019-03-23T00:37:26.152Z,21.45
2019-03-23T00:39:53.072Z,21.45
2019-03-23T00:42:19.976Z,20.72
2019-03-23T00:44:46.892Z,21.46
2019-03-23T00:47:13.825Z,21.45
2019-03-23T00:49:40.752Z,21.43
2019-03-23T00:52:07.748Z,21.42
2019-03-23T00:54:34.664Z,21.43
2019-03-23T00:57:01.636Z,21.42
2019-03-23T00:59:28.573Z,21.45
2019-03-23T01:01:55.480Z,21.43
2019-03-23T01:04:22.388Z,21.42
2019-03-23T01:06:52.431Z,21.43
2019-03-23T01:09:17.973Z,21.42
2019-03-23T01:11:44.921Z,21.42
2019-03-23T01:14:11.826Z,21.42
2019-03-23T01:16:38.756Z,21.42
2019-03-23T01:19:05.678Z,21.42
2019-03-23T01:21:32.578Z,21.42
2019-03-23T01:23:59.522Z,21.43
2019-03-23T01:26:26.441Z,21.42
2019-03-23T01:28:53.340Z,21.43
2019-03-23T01:31:20.243Z,21.42
2019-03-23T01:33:47.169Z,21.42
2019-03-23T01:36:14.113Z,21.41
2019-03-23T01:38:41.011Z,21.42
2019-03-23T01:41:07.932Z,21.41
2019-03-23T01:43:34.928Z,21.42
2019-03-23T01:46:01.827Z,21.41
2019-03-23T01:48:28.748Z,21.41
2019-03-23T01:50:55.657Z,21.42
2019-03-23T01:53:22.559Z,21.41
2019-03-23T01:55:49.472Z,21.40
2019-03-23T01:58:16.408Z,21.41
2019-03-23T02:00:43.320Z,21.41
2019-03-23T02:03:10.231Z,21.40
2019-03-23T02:05:37.140Z,21.40
2019-03-23T02:08:04.048Z,21.41
2019-03-23T02:10:30.968Z,21.40
2019-03-23T02:12:57.888Z,21.40
2019-03-23T02:15:24.794Z,21.40
2019-03-23T02:17:51.703Z,21.40
2019-03-23T02:20:18.617Z,21.40
2019-03-23T02:22:45.530Z,21.40
2019-03-23T02:25:12.436Z,21.39
2019-03-23T02:27:39.376Z,21.39
2019-03-23T02:30:06.285Z,21.40
2019-03-23T02:32:33.200Z,21.39
2019-03-23T02:35:00.105Z,21.39
2019-03-23T02:37:28.174Z,21.40
2019-03-23T02:39:55.231Z,21.40
2019-03-23T02:42:22.209Z,21.39
2019-03-23T02:44:49.120Z,21.39
2019-03-23T02:47:16.031Z,21.39
2019-03-23T02:49:43.045Z,21.38
2019-03-23T02:52:09.955Z,21.38
2019-03-23T02:54:36.885Z,21.38
2019-03-23T02:57:03.797Z,21.38
2019-03-23T02:59:30.744Z,21.38
2019-03-23T03:01:57.649Z,21.38
2019-03-23T03:04:24.560Z,21.38
2019-03-23T03:06:51.473Z,21.38
2019-03-23T03:09:18.423Z,21.37
2019-03-23T03:11:45.314Z,21.38
2019-03-23T03:14:12.223Z,21.38
2019-03-23T03:16:39.133Z,21.38
2019-03-23T03:19:06.045Z,21.36
2019-03-23T03:21:32.966Z,21.37
2019-03-23T03:23:59.873Z,21.37
2019-03-23T03:26:26.785Z,21.37
2019-03-23T03:28:53.696Z,21.36
2019-03-23T03:31:20.635Z,21.36
2019-03-23T03:33:47.548Z,21.36
2019-03-23T03:36:14.554Z,21.36
2019-03-23T03:38:41.469Z,21.35
2019-03-23T03:41:08.378Z,21.36
2019-03-23T03:43:35.289Z,21.36
2019-03-23T03:46:02.242Z,21.36
2019-03-23T03:48:29.100Z,21.36
2019-03-23T03:50:56.017Z,21.36
2019-03-23T03:53:22.934Z,21.35
2019-03-23T03:55:49.853Z,21.34
2019-03-23T03:58:16.787Z,21.35
2019-03-23T04:00:43.688Z,21.35
2019-03-23T04:03:10.623Z,21.34
2019-03-23T04:05:37.538Z,21.35
2019-03-23T04:08:10.903Z,21.35
2019-03-23T04:10:33.012Z,21.35
2019-03-23T04:12:59.909Z,21.35
2019-03-23T04:15:26.910Z,21.34
2019-03-23T04:17:53.803Z,21.34
2019-03-23T04:20:20.768Z,21.33
2019-03-23T04:22:47.686Z,21.33
2019-03-23T04:25:14.669Z,21.34
2019-03-23T04:27:41.571Z,21.33
2019-03-23T04:30:08.497Z,21.34
2019-03-23T04:32:35.439Z,21.33
2019-03-23T04:35:02.340Z,21.33
2019-03-23T04:37:29.265Z,21.33
2019-03-23T04:39:56.215Z,21.33
2019-03-23T04:42:23.120Z,21.33
2019-03-23T04:44:50.033Z,21.32
2019-03-23T04:47:16.945Z,21.33
2019-03-23T04:49:43.847Z,21.32
2019-03-23T04:52:10.760Z,21.32
2019-03-23T04:54:38.943Z,21.32
2019-03-23T04:57:06.005Z,21.31
2019-03-23T04:59:32.925Z,21.32
2019-03-23T05:01:59.836Z,21.32
2019-03-23T05:04:26.740Z,21.31
2019-03-23T05:06:53.647Z,21.32
2019-03-23T05:09:20.565Z,21.31
2019-03-23T05:11:47.474Z,21.32
2019-03-23T05:14:14.380Z,21.31
2019-03-23T05:16:41.349Z,21.31
2019-03-23T05:19:08.224Z,21.30
2019-03-23T05:21:35.131Z,21.30
2019-03-23T05:24:02.046Z,21.30
2019-03-23T05:26:28.969Z,21.30
2019-03-23T05:28:55.873Z,21.30
2019-03-23T05:31:22.775Z,21.30
2019-03-23T05:33:49.698Z,21.29
2019-03-23T05:36:16.596Z,21.29
2019-03-23T05:38:44.630Z,21.29
2019-03-23T05:41:11.933Z,21.29
2019-03-23T05:43:38.841Z,21.30
2019-03-23T05:46:05.739Z,21.29
2019-03-23T05:48:32.661Z,21.29
2019-03-23T05:50:59.578Z,21.29
2019-03-23T05:53:26.504Z,21.28
2019-03-23T05:55:53.425Z,21.27
2019-03-23T05:58:20.329Z,21.28
2019-03-23T06:00:47.235Z,21.29
2019-03-23T06:03:14.154Z,21.28
2019-03-23T06:05:41.065Z,21.27
2019-03-23T06:08:07.967Z,21.28
2019-03-23T06:10:34.880Z,21.27
2019-03-23T06:13:01.801Z,21.28
2019-03-23T06:15:28.724Z,21.27
2019-03-23T06:17:55.638Z,21.27
2019-03-23T06:20:22.558Z,21.27
2019-03-23T06:22:49.463Z,21.26
2019-03-23T06:25:16.373Z,21.28
2019-03-23T06:27:43.313Z,21.26
2019-03-23T06:30:10.228Z,21.26
2019-03-23T06:32:37.137Z,21.27
2019-03-23T06:35:04.049Z,21.27
2019-03-23T06:37:30.989Z,21.26
2019-03-23T06:39:57.897Z,21.25
2019-03-23T06:42:24.804Z,21.27
2019-03-23T06:44:51.719Z,21.26
2019-03-23T06:47:18.628Z,21.26
2019-03-23T06:49:45.540Z,21.25
2019-03-23T06:52:12.453Z,21.26
2019-03-23T06:54:39.361Z,21.25
2019-03-23T06:57:06.276Z,21.25
2019-03-23T06:59:33.207Z,21.24
2019-03-23T07:02:00.122Z,21.25
2019-03-23T07:04:27.033Z,21.24
2019-03-23T07:06:53.956Z,21.24
2019-03-23T07:09:20.868Z,21.24
2019-03-23T07:11:47.873Z,21.25
2019-03-23T07:14:14.783Z,21.23
2019-03-23T07:16:41.712Z,21.23
2019-03-23T07:19:08.735Z,21.24
2019-03-23T07:21:35.644Z,21.23
2019-03-23T07:24:02.561Z,21.24
2019-03-23T07:26:29.467Z,21.22
2019-03-23T07:28:56.399Z,21.23
2019-03-23T07:31:23.289Z,21.23
2019-03-23T07:33:50.206Z,21.21
2019-03-23T07:36:17.119Z,21.22
2019-03-23T07:38:44.048Z,21.23
2019-03-23T07:41:10.956Z,21.23
2019-03-23T07:43:37.869Z,21.23
2019-03-23T07:46:04.781Z,21.24
2019-03-23T07:48:31.689Z,21.23
2019-03-23T07:50:58.603Z,21.21
2019-03-23T07:53:25.623Z,21.23
2019-03-23T07:55:52.517Z,21.21
2019-03-23T07:58:19.428Z,21.21
2019-03-23T08:00:46.441Z,21.21
2019-03-23T08:03:13.356Z,21.22
2019-03-23T08:05:40.268Z,21.21
2019-03-23T08:08:07.182Z,21.20
2019-03-23T08:10:34.122Z,21.20
2019-03-23T08:13:01.022Z,21.19
2019-03-23T08:15:27.935Z,21.20
2019-03-23T08:17:54.898Z,21.20
2019-03-23T08:20:21.809Z,21.21
2019-03-23T08:22:49.056Z,21.20
2019-03-23T08:25:15.977Z,21.20
2019-03-23T08:27:42.922Z,21.20
2019-03-23T08:30:09.830Z,21.20
2019-03-23T08:32:36.732Z,21.19
2019-03-23T08:35:03.649Z,21.19
2019-03-23T08:37:30.622Z,21.19
2019-03-23T08:39:57.557Z,21.19
2019-03-23T08:42:24.473Z,21.20
2019-03-23T08:44:51.381Z,21.20
2019-03-23T08:47:18.297Z,21.18
2019-03-23T08:49:45.208Z,21.19
2019-03-23T08:52:12.225Z,21.19
2019-03-23T08:54:39.145Z,21.19
2019-03-23T08:57:06.084Z,21.19
2019-03-23T08:59:33.034Z,21.19
2019-03-23T09:01:59.953Z,21.19
2019-03-23T09:04:26.869Z,21.19
2019-03-23T09:06:53.776Z,21.19
2019-03-23T09:09:20.689Z,21.19
2019-03-23T09:11:47.600Z,21.19
2019-03-23T09:14:14.513Z,21.19
2019-03-23T09:16:41.444Z,21.18
2019-03-23T09:19:08.381Z,21.18
2019-03-23T09:21:35.295Z,21.19
2019-03-23T09:24:02.208Z,21.18
2019-03-23T09:26:29.121Z,21.18
2019-03-23T09:28:56.032Z,21.18
2019-03-23T09:31:22.947Z,21.17
2019-03-23T09:33:49.956Z,21.17
2019-03-23T09:36:16.896Z,21.18
2019-03-23T09:38:43.804Z,21.18
2019-03-23T09:41:10.708Z,21.17
2019-03-23T09:43:37.621Z,21.17
2019-03-23T09:46:04.538Z,21.17
2019-03-23T09:48:31.453Z,21.18
2019-03-23T09:50:58.376Z,21.18
2019-03-23T09:53:25.280Z,21.18
2019-03-23T09:55:52.195Z,21.17
2019-03-23T09:58:19.121Z,21.17
2019-03-23T10:00:46.037Z,21.17
2019-03-23T10:03:12.945Z,21.17
2019-03-23T10:05:39.860Z,21.17
2019-03-23T10:08:06.782Z,21.17
2019-03-23T10:10:33.685Z,21.18
2019-03-23T10:13:00.595Z,21.17
2019-03-23T10:15:27.517Z,21.17
2019-03-23T10:17:54.420Z,21.17
2019-03-23T10:20:21.352Z,21.17
2019-03-23T10:22:48.265Z,21.17
2019-03-23T10:25:15.178Z,21.17
2019-03-23T10:27:42.092Z,21.17
2019-03-23T10:30:09.004Z,21.17
2019-03-23T10:32:36.147Z,21.17
2019-03-23T10:35:03.017Z,21.17
2019-03-23T10:37:29.929Z,21.16
2019-03-23T10:39:56.841Z,21.17
2019-03-23T10:42:23.755Z,21.16
2019-03-23T10:44:50.703Z,21.16
2019-03-23T10:47:17.748Z,21.18
2019-03-23T10:49:44.624Z,21.16
2019-03-23T10:52:11.533Z,21.18
2019-03-23T10:54:38.445Z,21.16
2019-03-23T10:57:05.357Z,21.15
2019-03-23T10:59:32.288Z,21.17
2019-03-23T11:01:59.205Z,21.16
2019-03-23T11:04:26.115Z,21.17
2019-03-23T11:06:53.036Z,21.17
2019-03-23T11:09:19.968Z,21.18
2019-03-23T11:11:46.881Z,21.17
2019-03-23T11:14:13.792Z,20.80
2019-03-23T11:16:40.709Z,21.16
2019-03-23T11:19:13.368Z,21.16
2019-03-23T11:21:36.187Z,21.16
2019-03-23T11:24:03.093Z,21.17
2019-03-23T11:26:30.004Z,21.16
2019-03-23T11:28:56.920Z,21.16
2019-03-23T11:31:23.865Z,21.17
2019-03-23T11:33:50.776Z,21.18
2019-03-23T11:36:17.688Z,21.17
2019-03-23T11:38:44.595Z,21.17
2019-03-23T11:41:11.514Z,21.17
2019-03-23T11:43:38.430Z,21.17
2019-03-23T11:46:05.328Z,21.17
2019-03-23T11:48:32.254Z,21.17
2019-03-23T11:50:59.153Z,21.17
2019-03-23T11:53:26.087Z,21.17
2019-03-23T11:55:53.005Z,21.16
2019-03-23T11:58:19.918Z,21.17
2019-03-23T12:00:46.988Z,21.16
2019-03-23T12:03:13.895Z,21.16
2019-03-23T12:05:40.824Z,21.16
2019-03-23T12:08:07.819Z,21.17
2019-03-23T12:10:34.744Z,21.18
2019-03-23T12:13:01.661Z,21.17
2019-03-23T12:15:29.858Z,21.18
2019-03-23T12:17:56.896Z,21.17
2019-03-23T12:20:23.888Z,21.16
2019-03-23T12:22:50.849Z,21.17
2019-03-23T12:25:17.781Z,21.17
2019-03-23T12:27:44.697Z,21.17
2019-03-23T12:30:11.784Z,21.16
2019-03-23T12:32:38.715Z,21.16
2019-03-23T12:35:05.652Z,21.17
2019-03-23T12:37:32.669Z,21.16
2019-03-23T12:39:59.564Z,21.16
2019-03-23T12:42:26.471Z,21.16
2019-03-23T12:44:53.394Z,21.17
2019-03-23T12:47:20.295Z,21.17
2019-03-23T12:49:47.214Z,21.16
2019-03-23T12:52:14.158Z,21.16
2019-03-23T12:54:41.070Z,21.17
2019-03-23T12:57:07.969Z,21.15
2019-03-23T12:59:34.885Z,21.18
2019-03-23T13:02:01.810Z,21.17
2019-03-23T13:04:28.828Z,21.17
2019-03-23T13:06:55.745Z,21.17
2019-03-23T13:09:22.664Z,21.17
2019-03-23T13:11:49.594Z,21.17
2019-03-23T13:14:16.513Z,21.18
2019-03-23T13:16:43.454Z,21.18
2019-03-23T13:19:10.356Z,21.18
2019-03-23T13:21:37.259Z,21.18
2019-03-23T13:24:04.185Z,21.19
2019-03-23T13:26:31.111Z,21.18
2019-03-23T13:28:58.057Z,21.17
2019-03-23T13:31:24.975Z,21.18
2019-03-23T13:33:51.875Z,21.18
2019-03-23T13:36:18.788Z,21.18
2019-03-23T13:38:45.734Z,21.19
2019-03-23T13:41:12.657Z,21.18
2019-03-23T13:43:39.567Z,21.18
2019-03-23T13:46:06.509Z,21.18
2019-03-23T13:48:33.407Z,21.18
2019-03-23T13:51:00.350Z,21.19
2019-03-23T13:53:27.270Z,21.19
2019-03-23T13:55:55.826Z,21.19
2019-03-23T13:58:22.730Z,21.18
2019-03-23T14:00:49.642Z,21.19
2019-03-23T14:03:16.557Z,21.19
2019-03-23T14:05:43.459Z,21.19
2019-03-23T14:08:10.449Z,21.20
2019-03-23T14:10:37.362Z,21.19
2019-03-23T14:13:04.264Z,21.19
2019-03-23T14:15:31.180Z,21.20
2019-03-23T14:17:58.088Z,20.48
2019-03-23T14:20:25.028Z,21.20
2019-03-23T14:22:51.938Z,21.20
2019-03-23T14:25:18.849Z,21.20
2019-03-23T14:27:45.760Z,21.20
2019-03-23T14:30:12.672Z,21.19
2019-03-23T14:32:39.616Z,21.19
2019-03-23T14:35:06.534Z,21.20
2019-03-23T14:37:33.454Z,21.20
2019-03-23T14:40:00.406Z,21.20
2019-03-23T14:42:27.336Z,21.19
2019-03-23T14:44:54.285Z,21.20
2019-03-23T14:47:21.264Z,21.20
2019-03-23T14:49:48.165Z,21.20
2019-03-23T14:52:15.076Z,21.19
2019-03-23T14:54:41.986Z,21.19
2019-03-23T14:57:08.921Z,21.20
2019-03-23T14:59:35.836Z,21.20
2019-03-23T15:02:02.744Z,21.20
2019-03-23T15:04:29.745Z,21.20
2019-03-23T15:06:56.672Z,21.21
2019-03-23T15:09:23.580Z,21.20
2019-03-23T15:11:50.502Z,21.20
2019-03-23T15:14:17.456Z,21.21
2019-03-23T15:16:44.353Z,21.20
2019-03-23T15:19:11.264Z,21.20
2019-03-23T15:21:38.175Z,21.21
2019-03-23T15:24:05.089Z,21.20
2019-03-23T15:26:31.994Z,21.20
2019-03-23T15:28:58.904Z,21.20
2019-03-23T15:31:25.817Z,21.20
2019-03-23T15:33:52.728Z,21.20
2019-03-23T15:36:19.638Z,21.20
2019-03-23T15:38:46.573Z,21.20
2019-03-23T15:41:13.490Z,21.21
2019-03-23T15:43:40.460Z,21.20
2019-03-23T15:46:07.382Z,21.21
2019-03-23T15:48:34.293Z,21.20
2019-03-23T15:51:01.229Z,21.20
2019-03-23T15:53:28.141Z,21.20
2019-03-23T15:55:55.052Z,21.20
2019-03-23T15:58:21.966Z,21.20
2019-03-23T16:00:48.948Z,21.20
2019-03-23T16:05:49.934Z,21.20
2019-03-23T16:08:19.810Z,21.20
2019-03-23T16:10:46.703Z,21.21
2019-03-23T16:13:13.626Z,21.20
2019-03-23T16:15:40.552Z,21.20
2019-03-23T16:18:07.452Z,21.21
2019-03-23T16:20:34.402Z,21.20
2019-03-23T16:23:01.318Z,21.20
2019-03-23T16:25:28.220Z,21.20
2019-03-23T16:27:55.145Z,21.20
2019-03-23T16:30:22.081Z,21.20
2019-03-23T16:32:48.987Z,21.20
2019-03-23T16:35:15.895Z,21.20
2019-03-23T16:37:42.810Z,21.20
2019-03-23T16:40:09.722Z,21.20
2019-03-23T16:42:44.696Z,21.20
2019-03-23T16:45:05.222Z,21.20
2019-03-23T16:47:32.121Z,21.20
2019-03-23T16:49:59.023Z,21.20
2019-03-23T16:52:25.952Z,21.20
2019-03-23T16:54:52.873Z,21.20
2019-03-23T16:57:19.786Z,21.20
2019-03-23T16:59:46.693Z,21.19
2019-03-23T17:02:13.610Z,21.20
2019-03-23T17:04:40.521Z,21.20
2019-03-23T17:07:07.432Z,21.20
2019-03-23T17:09:34.444Z,21.19
2019-03-23T17:12:01.348Z,21.19
2019-03-23T17:14:28.284Z,21.20
2019-03-23T17:16:55.245Z,21.19
2019-03-23T17:19:22.178Z,21.20
2019-03-23T17:21:49.084Z,21.19
2019-03-23T17:24:16.081Z,21.20
2019-03-23T17:26:42.992Z,21.19
2019-03-23T17:29:09.901Z,21.19
2019-03-23T17:31:36.857Z,21.19
2019-03-23T17:34:03.768Z,21.19
2019-03-23T17:36:30.704Z,21.19
2019-03-23T17:38:57.616Z,21.19
2019-03-23T17:41:24.525Z,21.19
2019-03-23T17:43:51.435Z,21.19
2019-03-23T17:46:18.344Z,21.19
2019-03-23T17:48:45.258Z,21.19
2019-03-23T17:51:21.881Z,21.19
2019-03-23T17:53:58.091Z,21.19
2019-03-23T17:56:17.361Z,21.19
2019-03-23T17:58:44.274Z,21.18
2019-03-23T18:01:19.103Z,21.19
2019-03-23T18:03:39.842Z,21.18
2019-03-23T18:06:06.748Z,21.17
2019-03-23T18:08:33.687Z,21.18
2019-03-23T18:11:00.624Z,21.18
2019-03-23T18:13:27.537Z,21.18
2019-03-23T18:15:54.448Z,21.18
2019-03-23T18:18:21.357Z,21.18
2019-03-23T18:20:48.269Z,21.18
2019-03-23T18:23:15.889Z,21.18
2019-03-23T18:25:42.812Z,21.17
2019-03-23T18:28:09.721Z,21.17
2019-03-23T18:30:36.652Z,21.17
2019-03-23T18:33:03.560Z,21.17
2019-03-23T18:35:30.470Z,21.16
2019-03-23T18:37:57.384Z,21.15
2019-03-23T18:40:24.288Z,21.16
2019-03-23T18:42:51.204Z,21.15
2019-03-23T18:45:18.114Z,21.16
2019-03-23T18:47:45.024Z,21.16
2019-03-23T18:50:11.932Z,21.14
2019-03-23T18:52:38.865Z,21.15
2019-03-23T18:55:05.773Z,21.15
2019-03-23T18:57:32.689Z,21.15
2019-03-23T18:59:59.603Z,21.16
2019-03-23T19:02:26.519Z,21.16
2019-03-23T19:04:53.441Z,21.15
2019-03-23T19:07:20.352Z,21.15
2019-03-23T19:09:47.261Z,21.14
2019-03-23T19:12:14.172Z,21.15
2019-03-23T19:14:41.084Z,21.15
2019-03-23T19:17:07.997Z,21.15
2019-03-23T19:19:34.905Z,21.14
2019-03-23T19:22:01.839Z,21.15
2019-03-23T19:24:28.744Z,21.15
2019-03-23T19:26:55.653Z,21.14
2019-03-23T19:29:22.565Z,21.15
2019-03-23T19:31:49.589Z,21.14
2019-03-23T19:34:16.496Z,21.14
2019-03-23T19:36:43.410Z,21.14
2019-03-23T19:39:10.324Z,21.14
2019-03-23T19:41:37.240Z,21.14
2019-03-23T19:44:04.204Z,21.14
2019-03-23T19:46:31.100Z,21.14
2019-03-23T19:48:58.012Z,21.13
2019-03-23T19:51:24.924Z,21.14
2019-03-23T19:53:51.841Z,21.14
2019-03-23T19:56:18.745Z,21.13
2019-03-23T19:58:45.652Z,21.14
2019-03-23T20:01:12.590Z,21.14
2019-03-23T20:03:39.500Z,21.14
2019-03-23T20:06:06.407Z,21.14
2019-03-23T20:08:33.316Z,21.13
2019-03-23T20:11:00.229Z,21.14
2019-03-23T20:13:27.155Z,21.13
2019-03-23T20:15:54.069Z,21.13
2019-03-23T20:18:21.094Z,21.14
2019-03-23T20:20:48.005Z,21.14
2019-03-23T20:23:14.922Z,21.13
2019-03-23T20:25:41.865Z,21.12
2019-03-23T20:28:08.768Z,21.13
2019-03-23T20:30:37.021Z,21.13
2019-03-23T20:33:04.434Z,21.12
2019-03-23T20:35:31.439Z,21.13
2019-03-23T20:37:58.379Z,21.13
2019-03-23T20:40:25.284Z,21.13
2019-03-23T20:42:52.270Z,21.13
2019-03-23T20:45:19.202Z,21.13
2019-03-23T20:47:46.118Z,21.13
2019-03-23T20:50:13.025Z,21.13
2019-03-23T20:52:39.953Z,21.12
2019-03-23T20:55:06.901Z,21.12
2019-03-23T20:57:37.642Z,21.13
2019-03-23T21:00:02.375Z,21.12
2019-03-23T21:02:29.306Z,21.12
2019-03-23T21:04:56.210Z,21.12
2019-03-23T21:07:23.198Z,21.11
2019-03-23T21:09:50.110Z,21.11
2019-03-23T21:12:17.037Z,21.11
2019-03-23T21:14:44.016Z,21.11
2019-03-23T21:17:10.857Z,21.11
2019-03-23T21:19:37.783Z,21.10
2019-03-23T21:22:04.755Z,21.12
2019-03-23T21:24:31.678Z,21.11
2019-03-23T21:26:58.597Z,21.12
2019-03-23T21:29:25.504Z,21.10
2019-03-23T21:31:52.428Z,21.10
2019-03-23T21:34:19.340Z,21.11
2019-03-23T21:36:46.248Z,21.09
2019-03-23T21:39:13.156Z,21.10
2019-03-23T21:41:40.074Z,21.11
2019-03-23T21:44:07.076Z,21.10
2019-03-23T21:46:34.017Z,21.10
2019-03-23T21:49:00.935Z,21.10
2019-03-23T21:51:27.889Z,21.09
2019-03-23T21:53:54.787Z,21.10
2019-03-23T21:56:21.710Z,21.10
2019-03-23T21:58:48.617Z,21.10
2019-03-23T22:01:15.583Z,21.10
2019-03-23T22:03:42.497Z,21.11
2019-03-23T22:06:09.416Z,21.09
2019-03-23T22:08:36.332Z,21.10
2019-03-23T22:11:03.242Z,21.09
2019-03-23T22:13:30.153Z,21.10
2019-03-23T22:15:57.065Z,21.10
2019-03-23T22:18:23.977Z,21.10
2019-03-23T22:20:50.935Z,21.10
2019-03-23T22:23:17.826Z,21.10
2019-03-23T22:25:44.761Z,21.09
2019-03-23T22:28:11.668Z,21.10
2019-03-23T22:30:38.580Z,21.09
2019-03-23T22:33:05.493Z,21.09
2019-03-23T22:35:32.408Z,21.09
2019-03-23T22:37:59.316Z,21.11
2019-03-23T22:40:28.142Z,21.09
2019-03-23T22:42:54.801Z,21.09
2019-03-23T22:45:21.710Z,21.10
2019-03-23T22:47:48.677Z,21.09
2019-03-23T22:50:15.595Z,21.09
2019-03-23T22:52:42.501Z,21.09
2019-03-23T22:55:09.412Z,21.10
2019-03-23T22:57:36.332Z,21.09
2019-03-23T23:00:03.250Z,21.09
2019-03-23T23:02:30.149Z,21.10
2019-03-23T23:04:57.080Z,21.09
2019-03-23T23:07:23.996Z,21.09
2019-03-23T23:09:50.905Z,21.08
2019-03-23T23:12:17.812Z,21.08
2019-03-23T23:14:44.728Z,21.09
2019-03-23T23:17:11.662Z,21.09
2019-03-23T23:19:38.597Z,21.08
2019-03-23T23:22:05.517Z,21.08
2019-03-23T23:24:32.420Z,21.09
2019-03-23T23:26:59.333Z,21.08
2019-03-23T23:29:26.242Z,21.08
2019-03-23T23:31:53.160Z,21.08
2019-03-23T23:34:20.064Z,21.08
2019-03-23T23:36:46.977Z,21.09
2019-03-23T23:39:13.888Z,21.07
2019-03-23T23:41:40.799Z,21.08
2019-03-23T23:44:07.708Z,21.07
2019-03-23T23:46:34.624Z,21.08
2019-03-23T23:49:01.541Z,21.08
2019-03-23T23:51:28.448Z,21.07
2019-03-23T23:53:55.361Z,21.08
2019-03-23T23:56:22.277Z,21.08
2019-03-23T23:58:49.184Z,21.07
